Terminal Aerodrome Forecast
Issued by NWS Chicago, IL

Home | Current Version | Previous Version | Graphics & Text | Print | Product List | Glossary On
Versions: 1 2 3 4 5 6 7 8 9 10 11 12 13 14 15 16 17 18 19 20 21 22 23 24 25
000
FTUS43 KLOT 132059 AAA
TAFRFD
TAF AMD
KRFD 132059Z 1321/1418 32022G33KT P6SM OVC018
     FM140200 35016G25KT P6SM -SHSN OVC015
     FM140800 34012KT P6SM FEW040 SCT250=

USA.gov is the U.S. government's official web portal to all federal, state and local government web resources and services.